createdAt,value
2016-05-14T00:00:55.530Z,53.64
2016-05-14T00:01:55.564Z,53.16
2016-05-14T00:02:56.052Z,53.54
2016-05-14T00:03:55.616Z,53.54
2016-05-14T00:04:55.636Z,53.35
2016-05-14T00:05:55.652Z,53.45
2016-05-14T00:06:55.688Z,53.54
2016-05-14T00:07:55.705Z,53.54
2016-05-14T00:08:55.740Z,53.35
2016-05-14T00:09:55.757Z,53.16
2016-05-14T00:10:55.776Z,53.06
2016-05-14T00:11:55.654Z,53.45
2016-05-14T00:12:55.829Z,53.35
2016-05-14T00:13:55.847Z,53.54
2016-05-14T00:14:55.724Z,53.83
2016-05-14T00:15:55.915Z,53.25
2016-05-14T00:16:55.917Z,53.13
2016-05-14T00:17:56.046Z,53.35
2016-05-14T00:18:55.970Z,53.54
2016-05-14T00:19:55.988Z,53.54
2016-05-14T00:20:56.022Z,53.52
2016-05-14T00:21:56.040Z,53.42
2016-05-14T00:22:56.074Z,53.23
2016-05-14T00:23:56.093Z,53.52
2016-05-14T00:24:56.126Z,53.52
2016-05-14T00:25:56.160Z,53.8
2016-05-14T00:26:56.178Z,53.32
2016-05-14T00:27:56.197Z,53.61
2016-05-14T00:28:56.231Z,54.28
2016-05-14T00:29:56.092Z,54
2016-05-14T00:30:56.111Z,54.28
2016-05-14T00:31:56.302Z,53.7
2016-05-14T00:32:56.289Z,54
2016-05-14T00:33:56.338Z,54.09
2016-05-14T00:34:56.387Z,53.7
2016-05-14T00:35:56.406Z,54.19
2016-05-14T00:36:56.424Z,54.19
2016-05-14T00:37:56.443Z,53.7
2016-05-14T00:38:56.461Z,54.28
2016-05-14T00:39:56.338Z,54.28
2016-05-14T00:40:56.513Z,54.09
2016-05-14T00:41:56.547Z,54.28
2016-05-14T00:42:56.565Z,54.19
2016-05-14T00:43:56.584Z,54.19
2016-05-14T00:44:56.617Z,54.38
2016-05-14T00:45:56.636Z,54.28
2016-05-14T00:46:56.671Z,54.19
2016-05-14T00:47:56.876Z,54.19
2016-05-14T00:48:56.707Z,54.38
2016-05-14T00:49:56.725Z,54.19
2016-05-14T00:50:56.759Z,54.38
2016-05-14T00:51:56.792Z,54.09
2016-05-14T00:52:56.811Z,54.19
2016-05-14T00:53:56.829Z,54.09
2016-05-14T00:54:56.848Z,54.09
2016-05-14T00:55:56.726Z,54.38
2016-05-14T00:56:56.900Z,54.19
2016-05-14T00:57:56.949Z,54.09
2016-05-14T00:58:56.952Z,54.67
2016-05-14T00:59:56.970Z,54.38
2016-05-14T01:00:57.005Z,54.19
2016-05-14T01:01:57.023Z,54.38
2016-05-14T01:02:57.056Z,54.57
2016-05-14T01:03:57.075Z,54.28
2016-05-14T01:04:57.093Z,54.47
2016-05-14T01:05:56.971Z,54.47
2016-05-14T01:06:56.989Z,54.86
2016-05-14T01:07:57.008Z,54.57
2016-05-14T01:08:57.198Z,54.38
2016-05-14T01:09:57.216Z,54.47
2016-05-14T01:10:57.250Z,54.47
2016-05-14T01:11:57.268Z,54.57
2016-05-14T01:12:57.302Z,54.38
2016-05-14T01:13:57.321Z,54.57
2016-05-14T01:14:57.338Z,54.28
2016-05-14T01:15:57.374Z,54.47
2016-05-14T01:16:57.407Z,54.57
2016-05-14T01:17:57.268Z,54.57
2016-05-14T01:18:57.444Z,54.28
2016-05-14T01:19:57.462Z,54.57
2016-05-14T01:20:57.495Z,54.57
2016-05-14T01:21:57.514Z,54.47
2016-05-14T01:22:57.392Z,54.28
2016-05-14T01:23:57.567Z,54.38
2016-05-14T01:24:57.584Z,54.47
2016-05-14T01:25:57.618Z,54.28
2016-05-14T01:26:57.637Z,54.47
2016-05-14T01:27:57.670Z,54.47
2016-05-14T01:28:57.689Z,54.57
2016-05-14T01:29:57.723Z,54.57
2016-05-14T01:30:57.726Z,54.57
2016-05-14T01:31:57.776Z,54.47
2016-05-14T01:32:57.622Z,54.28
2016-05-14T01:33:57.812Z,54.57
2016-05-14T01:34:57.831Z,54.47
2016-05-14T01:35:57.849Z,54.57
2016-05-14T01:36:57.882Z,54.57
2016-05-14T01:37:57.744Z,54.47
2016-05-14T01:39:17.216Z,54.77
2016-05-14T01:39:57.953Z,54.57
2016-05-14T01:40:57.971Z,54.57
2016-05-14T01:41:58.006Z,54.67
2016-05-14T01:42:58.023Z,54.77
2016-05-14T01:43:57.885Z,54.47
2016-05-14T01:44:58.076Z,54.38
2016-05-14T01:45:58.094Z,54.67
2016-05-14T01:46:58.129Z,54.67
2016-05-14T01:47:58.740Z,54.47
2016-05-14T01:48:58.180Z,54.67
2016-05-14T01:49:58.198Z,54.38
2016-05-14T01:50:58.218Z,54.47
2016-05-14T01:51:58.235Z,53.9
2016-05-14T01:52:58.270Z,54.38
2016-05-14T01:53:58.287Z,54.67
2016-05-14T01:54:58.321Z,54.77
2016-05-14T01:55:58.340Z,54.47
2016-05-14T01:56:58.358Z,54.28
2016-05-14T01:57:58.393Z,54.57
2016-05-14T01:58:58.411Z,54.67
2016-05-14T01:59:58.445Z,54.38
2016-05-14T02:00:58.462Z,54.38
2016-05-14T02:01:58.481Z,54.09
2016-05-14T02:02:58.515Z,54.47
2016-05-14T02:03:58.533Z,54.38
2016-05-14T02:04:58.567Z,54.47
2016-05-14T02:05:58.585Z,54.47
2016-05-14T02:06:58.603Z,54.38
2016-05-14T02:07:58.481Z,54.19
2016-05-14T02:08:58.656Z,54.28
2016-05-14T02:09:58.675Z,53.61
2016-05-14T02:10:58.708Z,54.19
2016-05-14T02:11:58.727Z,53.8
2016-05-14T02:12:58.760Z,54.09
2016-05-14T02:13:58.779Z,54.19
2016-05-14T02:14:58.797Z,54.09
2016-05-14T02:15:58.832Z,53.9
2016-05-14T02:16:58.850Z,54.19
2016-05-14T02:17:58.883Z,54.38
2016-05-14T02:18:58.902Z,54.38
2016-05-14T02:19:58.920Z,54
2016-05-14T02:20:58.938Z,54.47
2016-05-14T02:21:58.973Z,54.28
2016-05-14T02:22:58.990Z,54.38
2016-05-14T02:23:59.024Z,54.09
2016-05-14T02:24:59.043Z,54.19
2016-05-14T02:25:59.062Z,54.19
2016-05-14T02:26:58.939Z,54.47
2016-05-14T02:27:59.113Z,54.09
2016-05-14T02:28:58.976Z,53.8
2016-05-14T02:29:59.166Z,54
2016-05-14T02:30:59.184Z,54.19
2016-05-14T02:31:59.062Z,54.19
2016-05-14T02:32:59.237Z,54.09
2016-05-14T02:33:59.130Z,54.19
2016-05-14T02:34:59.289Z,54.09
2016-05-14T02:35:59.306Z,54.09
2016-05-14T02:36:59.419Z,54.19
2016-05-14T02:37:59.266Z,54
2016-05-14T02:38:59.378Z,54.28
2016-05-14T02:39:59.412Z,54.19
2016-05-14T02:40:59.430Z,54.19
2016-05-14T02:41:59.291Z,54.09
2016-05-14T02:42:59.325Z,54.19
2016-05-14T02:43:59.407Z,54.19
2016-05-14T02:44:59.535Z,54.19
2016-05-14T02:45:59.552Z,54.38
2016-05-14T02:46:59.571Z,54.19
2016-05-14T02:47:59.605Z,54
2016-05-14T02:48:59.623Z,54.06
2016-05-14T02:49:59.657Z,54.28
2016-05-14T02:50:59.675Z,54.09
2016-05-14T02:51:59.537Z,54.19
2016-05-14T02:52:59.744Z,54
2016-05-14T02:53:59.589Z,54
2016-05-14T02:54:59.607Z,54.25
2016-05-14T02:55:59.798Z,54.28
2016-05-14T02:56:59.817Z,54.19
2016-05-14T02:57:59.851Z,54.06
2016-05-14T02:58:59.868Z,54.47
2016-05-14T02:59:59.887Z,54.28
2016-05-14T03:00:59.920Z,54.19
2016-05-14T03:01:59.939Z,53.97
2016-05-14T03:02:59.973Z,54.06
2016-05-14T03:03:59.836Z,54.25
2016-05-14T03:05:00.009Z,53.97
2016-05-14T03:06:00.044Z,54.28
2016-05-14T03:07:00.062Z,54.25
2016-05-14T03:08:00.080Z,54.19
2016-05-14T03:09:00.114Z,54.16
2016-05-14T03:10:00.133Z,54.25
2016-05-14T03:11:00.150Z,54.16
2016-05-14T03:12:00.185Z,54.16
2016-05-14T03:13:00.219Z,54.16
2016-05-14T03:14:00.222Z,53.78
2016-05-14T03:15:00.255Z,54.25
2016-05-14T03:16:00.274Z,54.25
2016-05-14T03:17:00.308Z,54.06
2016-05-14T03:18:00.326Z,54.19
2016-05-14T03:19:00.360Z,53.87
2016-05-14T03:20:00.221Z,54.25
2016-05-14T03:21:00.396Z,54.09
2016-05-14T03:22:00.430Z,54.16
2016-05-14T03:23:00.449Z,54.25
2016-05-14T03:24:00.468Z,54.25
2016-05-14T03:25:00.501Z,54
2016-05-14T03:26:00.520Z,54
2016-05-14T03:27:00.537Z,54.25
2016-05-14T03:28:00.571Z,54.35
2016-05-14T03:29:00.434Z,54.25
2016-05-14T03:30:00.623Z,54.19
2016-05-14T03:31:00.643Z,54.45
2016-05-14T03:32:00.676Z,54.35
2016-05-14T03:33:00.679Z,54.25
2016-05-14T03:34:00.962Z,53.87
2016-05-14T03:35:00.747Z,54.09
2016-05-14T03:36:00.765Z,54.06
2016-05-14T03:37:00.783Z,54.25
2016-05-14T03:38:00.817Z,54.06
2016-05-14T03:39:00.836Z,54.25
2016-05-14T03:40:00.854Z,54
2016-05-14T03:41:00.888Z,54.16
2016-05-14T03:42:00.750Z,54.06
2016-05-14T03:43:00.769Z,54.25
2016-05-14T03:44:00.958Z,54.06
2016-05-14T03:45:00.821Z,54.16
2016-05-14T03:46:00.994Z,54.16
2016-05-14T03:47:01.029Z,54.16
2016-05-14T03:48:01.063Z,54.25
2016-05-14T03:49:00.924Z,54.45
2016-05-14T03:50:01.099Z,54.06
2016-05-14T03:51:01.133Z,54.06
2016-05-14T03:52:01.152Z,53.97
2016-05-14T03:53:01.170Z,54
2016-05-14T03:54:01.204Z,54.06
2016-05-14T03:55:01.223Z,53.97
2016-05-14T03:56:01.240Z,54
2016-05-14T03:57:01.275Z,54.06
2016-05-14T03:58:01.136Z,54.16
2016-05-14T03:59:01.326Z,53.68
2016-05-14T04:00:01.346Z,54.06
2016-05-14T04:01:01.364Z,54.06
2016-05-14T04:02:01.382Z,54.45
2016-05-14T04:03:01.415Z,54.25
2016-05-14T04:04:01.450Z,54.64
2016-05-14T04:05:01.468Z,54.16
2016-05-14T04:06:01.486Z,53.78
2016-05-14T04:07:01.520Z,54.06
2016-05-14T04:08:01.539Z,54.25
2016-05-14T04:09:01.557Z,54.06
2016-05-14T04:10:01.592Z,54.25
2016-05-14T04:11:01.625Z,53.68
2016-05-14T04:12:01.644Z,54.16
2016-05-14T04:13:01.661Z,54.35
2016-05-14T04:14:01.680Z,54.74
2016-05-14T04:15:01.697Z,54.06
2016-05-14T04:16:01.575Z,54.35
2016-05-14T04:17:01.594Z,53.97
2016-05-14T04:18:01.785Z,54.06
2016-05-14T04:19:01.943Z,54.64
2016-05-14T04:20:01.827Z,54.45
2016-05-14T04:21:01.904Z,54.55
2016-05-14T04:22:01.965Z,54.74
2016-05-14T04:23:02.042Z,54.64
2016-05-14T04:24:02.103Z,54.45
2016-05-14T04:25:02.176Z,54.45
2016-05-14T04:26:02.195Z,54.25
2016-05-14T04:27:02.243Z,54.25
2016-05-14T04:28:02.121Z,54.35
2016-05-14T04:29:02.327Z,54.35
2016-05-14T04:30:02.359Z,54.35
2016-05-14T04:31:02.243Z,54.45
2016-05-14T04:32:02.422Z,54.45
2016-05-14T04:33:02.447Z,54.55
2016-05-14T04:34:02.783Z,54.35
2016-05-14T04:35:02.510Z,54.45
2016-05-14T04:36:02.531Z,54.64
2016-05-14T04:37:02.395Z,54.35
2016-05-14T04:38:02.586Z,54.64
2016-05-14T04:39:02.607Z,54.35
2016-05-14T04:40:02.486Z,54.45
2016-05-14T04:41:02.662Z,54.35
2016-05-14T04:42:02.524Z,54.35
2016-05-14T04:43:02.716Z,54.25
2016-05-14T04:44:02.734Z,54.25
2016-05-14T04:45:02.770Z,54.35
2016-05-14T04:46:02.787Z,54.64
2016-05-14T04:47:02.807Z,54.55
2016-05-14T04:48:02.825Z,54.93
2016-05-14T04:49:02.860Z,54.55
2016-05-14T04:50:02.894Z,54.35
2016-05-14T04:51:02.912Z,54.74
2016-05-14T04:52:02.946Z,54.93
2016-05-14T04:53:02.964Z,54.45
2016-05-14T04:54:02.982Z,54.45
2016-05-14T04:55:03.001Z,54.45
2016-05-14T04:56:03.035Z,54.93
2016-05-14T04:57:03.054Z,54.64
2016-05-14T04:58:03.071Z,54.93
2016-05-14T04:59:03.106Z,54.35
2016-05-14T05:00:03.123Z,54.55
2016-05-14T05:01:03.189Z,54.64
2016-05-14T05:02:03.176Z,54.55
2016-05-14T05:03:03.225Z,54.55
2016-05-14T05:04:03.495Z,54.55
2016-05-14T05:05:03.247Z,54.25
2016-05-14T05:06:03.281Z,55.02
2016-05-14T05:07:03.284Z,54.25
2016-05-14T05:08:03.317Z,54.83
2016-05-14T05:09:03.351Z,54.83
2016-05-14T05:10:03.369Z,54.55
2016-05-14T05:11:03.388Z,54.55
2016-05-14T05:12:03.422Z,54.45
2016-05-14T05:13:03.284Z,54.35
2016-05-14T05:14:03.459Z,54.35
2016-05-14T05:15:03.492Z,54.45
2016-05-14T05:16:03.511Z,54.74
2016-05-14T05:17:03.544Z,54.45
2016-05-14T05:18:03.563Z,54.55
2016-05-14T05:19:03.580Z,54.45
2016-05-14T05:20:03.600Z,54.55
2016-05-14T05:21:03.633Z,54.64
2016-05-14T05:22:03.652Z,54.64
2016-05-14T05:23:03.686Z,54.45
2016-05-14T05:24:03.798Z,54.35
2016-05-14T05:25:03.722Z,54.55
2016-05-14T05:26:03.756Z,54.55
2016-05-14T05:27:03.774Z,54.35
2016-05-14T05:28:03.809Z,54.55
2016-05-14T05:29:03.827Z,54.64
2016-05-14T05:30:03.845Z,54.16
2016-05-14T05:31:03.863Z,53.78
2016-05-14T05:32:03.898Z,53.97
2016-05-14T05:33:03.915Z,54.35
2016-05-14T05:34:03.793Z,53.97
2016-05-14T05:35:03.968Z,54.06
2016-05-14T05:36:03.986Z,54.25
2016-05-14T05:37:04.020Z,54.06
2016-05-14T05:38:04.039Z,54.06
2016-05-14T05:39:04.072Z,54.35
2016-05-14T05:40:04.091Z,54.06
2016-05-14T05:41:04.124Z,54.06
2016-05-14T05:42:04.142Z,54.06
2016-05-14T05:43:04.162Z,54.25
2016-05-14T05:44:04.180Z,54.16
2016-05-14T05:45:04.214Z,54.09
2016-05-14T05:46:04.232Z,54.06
2016-05-14T05:47:04.094Z,53.58
2016-05-14T05:48:04.284Z,53.61
2016-05-14T05:49:04.411Z,53.13
2016-05-14T05:50:04.321Z,53.42
2016-05-14T05:51:04.354Z,53.03
2016-05-14T05:52:04.374Z,53.23
2016-05-14T05:53:04.408Z,53.32
2016-05-14T05:54:04.425Z,53.42
2016-05-14T05:55:04.460Z,53.32
2016-05-14T05:56:04.477Z,53.03
2016-05-14T05:57:04.496Z,53.42
2016-05-14T05:58:04.515Z,53.61
2016-05-14T05:59:04.548Z,52.84
2016-05-14T06:00:04.566Z,52.84
2016-05-14T06:01:04.600Z,52.84
2016-05-14T06:02:04.619Z,53.23
2016-05-14T06:03:04.637Z,52.84
2016-05-14T06:04:04.671Z,52.65
2016-05-14T06:05:04.690Z,52.84
2016-05-14T06:06:04.723Z,52.65
2016-05-14T06:07:04.742Z,52.84
2016-05-14T06:08:04.760Z,52.94
2016-05-14T06:09:04.794Z,52.94
2016-05-14T06:10:04.843Z,52.46
2016-05-14T06:11:04.830Z,52.94
2016-05-14T06:12:04.864Z,52.55
2016-05-14T06:13:04.883Z,52.26
2016-05-14T06:14:04.917Z,52.55
2016-05-14T06:15:04.936Z,52.55
2016-05-14T06:16:04.969Z,52.55
2016-05-14T06:17:05.003Z,52.08
2016-05-14T06:18:05.005Z,51.88
2016-05-14T06:19:05.055Z,51.98
2016-05-14T06:20:05.057Z,51.88
2016-05-14T06:21:05.091Z,52.08
2016-05-14T06:22:04.954Z,52.36
2016-05-14T06:23:05.128Z,51.98
2016-05-14T06:24:05.147Z,51.33
2016-05-14T06:25:05.180Z,51.4
2016-05-14T06:26:05.058Z,51.62
2016-05-14T06:27:05.076Z,51.98
2016-05-14T06:28:05.251Z,51.69
2016-05-14T06:29:05.269Z,51.62
2016-05-14T06:30:05.303Z,51.14
2016-05-14T06:31:05.321Z,51.43
2016-05-14T06:32:05.184Z,50.85
2016-05-14T06:33:05.374Z,50.95
2016-05-14T06:34:05.408Z,51.14
2016-05-14T06:35:05.426Z,51.23
2016-05-14T06:36:05.288Z,50.95
2016-05-14T06:37:05.462Z,50.66
2016-05-14T06:38:05.497Z,50.66
2016-05-14T06:39:05.515Z,50.95
2016-05-14T06:40:05.548Z,50.37
2016-05-14T06:41:05.567Z,50.46
2016-05-14T06:42:05.600Z,50.18
2016-05-14T06:43:05.619Z,50.18
2016-05-14T06:44:05.639Z,50.4
2016-05-14T06:45:05.672Z,50.01
2016-05-14T06:46:05.690Z,50.3
2016-05-14T06:47:05.724Z,50.01
2016-05-14T06:48:05.742Z,49.82
2016-05-14T06:49:05.777Z,49.82
2016-05-14T06:50:05.638Z,49.24
2016-05-14T06:51:05.813Z,49.33
2016-05-14T06:52:05.846Z,49.24
2016-05-14T06:53:05.866Z,49.05
2016-05-14T06:54:05.900Z,49.43
2016-05-14T06:55:05.933Z,48.69
2016-05-14T06:56:05.952Z,49.07
2016-05-14T06:57:05.969Z,48.59
2016-05-14T06:58:05.988Z,48.49
2016-05-14T06:59:06.022Z,48.88
2016-05-14T07:00:06.056Z,48.59
2016-05-14T07:01:06.074Z,48.02
2016-05-14T07:02:06.092Z,47.92
2016-05-14T07:03:05.954Z,48.21
2016-05-14T07:04:06.738Z,47.65
2016-05-14T07:05:06.178Z,47.56
2016-05-14T07:06:06.213Z,47.56
2016-05-14T07:07:06.215Z,47.27
2016-05-14T07:08:06.093Z,46.98
2016-05-14T07:09:06.127Z,47.08
2016-05-14T07:10:06.145Z,46.98
2016-05-14T07:11:06.320Z,46.78
2016-05-14T07:12:06.353Z,47.27
2016-05-14T07:13:06.372Z,47.17
2016-05-14T07:14:06.406Z,46.59
2016-05-14T07:15:06.268Z,46.4
2016-05-14T07:16:06.459Z,46.4
2016-05-14T07:17:06.477Z,46.21
2016-05-14T07:18:06.495Z,46.91
2016-05-14T07:19:06.904Z,46.11
2016-05-14T07:20:06.547Z,46.31
2016-05-14T07:21:06.581Z,46.31
2016-05-14T07:22:06.615Z,46.11
2016-05-14T07:23:06.633Z,46.23
2016-05-14T07:24:06.652Z,45.94
2016-05-14T07:25:06.686Z,46.04
2016-05-14T07:26:06.705Z,45.94
2016-05-14T07:27:06.737Z,46.14
2016-05-14T07:28:06.772Z,45.94
2016-05-14T07:29:06.791Z,45.75
2016-05-14T07:30:06.808Z,45.17
2016-05-14T07:31:06.843Z,44.98
2016-05-14T07:32:06.876Z,45.46
2016-05-14T07:33:07.176Z,44.98
2016-05-14T07:34:06.913Z,45.56
2016-05-14T07:35:06.946Z,45.27
2016-05-14T07:36:06.965Z,45.17
2016-05-14T07:37:06.999Z,45.27
2016-05-14T07:38:07.034Z,45.56
2016-05-14T07:39:07.052Z,44.89
2016-05-14T07:40:07.070Z,44.89
2016-05-14T07:41:07.104Z,44.59
2016-05-14T07:42:07.137Z,44.79
2016-05-14T07:43:07.155Z,44.81
2016-05-14T07:44:07.175Z,44.62
2016-05-14T07:45:07.192Z,44.71
2016-05-14T07:46:07.242Z,44.81
2016-05-14T07:47:07.261Z,44.62
2016-05-14T07:48:07.279Z,44.71
2016-05-14T07:49:07.892Z,44.9
2016-05-14T07:50:07.331Z,44.42
2016-05-14T07:51:07.365Z,44.13
2016-05-14T07:52:07.383Z,44.9
2016-05-14T07:53:07.417Z,44.13
2016-05-14T07:54:07.280Z,44.32
2016-05-14T07:55:07.313Z,44.32
2016-05-14T07:56:07.488Z,44.13
2016-05-14T07:57:07.522Z,44.13
2016-05-14T07:58:07.540Z,44.32
2016-05-14T07:59:07.574Z,44.32
2016-05-14T08:00:07.593Z,44.23
2016-05-14T08:01:07.627Z,44.23
2016-05-14T08:02:07.644Z,44.9
2016-05-14T08:03:07.679Z,44.9
2016-05-14T08:04:07.697Z,44.79
2016-05-14T08:05:07.574Z,44.42
2016-05-14T08:06:07.765Z,44.42
2016-05-14T08:07:07.626Z,44.23
2016-05-14T08:08:07.801Z,44.52
2016-05-14T08:09:07.835Z,44.89
2016-05-14T08:10:07.854Z,44.69
2016-05-14T08:11:07.888Z,44.79
2016-05-14T08:12:07.921Z,44.11
2016-05-14T08:13:07.939Z,44.11
2016-05-14T08:14:07.973Z,44.49
2016-05-14T08:15:07.836Z,44.21
2016-05-14T08:16:07.854Z,44.21
2016-05-14T08:17:08.028Z,44.89
2016-05-14T08:18:08.062Z,44.49
2016-05-14T08:19:08.159Z,44.89
2016-05-14T08:20:08.114Z,44.31
2016-05-14T08:21:08.149Z,44.49
2016-05-14T08:22:08.167Z,44.79
2016-05-14T08:23:08.186Z,44.59
2016-05-14T08:24:08.219Z,44.49
2016-05-14T08:25:08.253Z,44.11
2016-05-14T08:26:08.288Z,44.11
2016-05-14T08:27:08.305Z,44.4
2016-05-14T08:28:08.339Z,44.89
2016-05-14T08:29:08.357Z,44.49
2016-05-14T08:30:08.391Z,44.13
2016-05-14T08:31:08.394Z,44.89
2016-05-14T08:32:08.429Z,44.59
2016-05-14T08:33:08.463Z,44.21
2016-05-14T08:34:08.497Z,44.49
2016-05-14T08:35:08.515Z,44.49
2016-05-14T08:36:08.533Z,44.89
2016-05-14T08:37:08.567Z,44.69
2016-05-14T08:38:08.585Z,44.59
2016-05-14T08:39:08.604Z,44.79
2016-05-14T08:40:08.637Z,44.4
2016-05-14T08:41:08.671Z,44.11
2016-05-14T08:42:08.690Z,44.21
2016-05-14T08:43:08.708Z,44.11
2016-05-14T08:44:08.742Z,44.32
2016-05-14T08:45:08.776Z,44.21
2016-05-14T08:46:08.795Z,44.02
2016-05-14T08:47:08.828Z,44.11
2016-05-14T08:48:08.847Z,44.21
2016-05-14T08:49:08.896Z,44.59
2016-05-14T08:50:08.898Z,44.79
2016-05-14T08:51:08.933Z,44.11
2016-05-14T08:52:08.950Z,44.11
2016-05-14T08:53:08.985Z,44.11
2016-05-14T08:54:09.003Z,44.4
2016-05-14T08:55:09.037Z,44.11
2016-05-14T08:56:09.055Z,44.31
2016-05-14T08:57:09.074Z,44.31
2016-05-14T08:58:09.108Z,44.31
2016-05-14T08:59:09.142Z,44.11
2016-05-14T09:00:09.160Z,44.04
2016-05-14T09:01:09.194Z,44.02
2016-05-14T09:02:09.212Z,44.02
2016-05-14T09:03:09.246Z,44.21
2016-05-14T09:04:09.733Z,43.54
2016-05-14T09:05:09.282Z,44.02
2016-05-14T09:06:09.316Z,43.65
2016-05-14T09:07:09.350Z,44.52
2016-05-14T09:08:09.369Z,44.21
2016-05-14T09:09:09.388Z,44.49
2016-05-14T09:10:09.421Z,44.02
2016-05-14T09:11:09.440Z,44.21
2016-05-14T09:12:09.473Z,44.49
2016-05-14T09:13:09.492Z,44.31
2016-05-14T09:14:09.526Z,44.23
2016-05-14T09:15:09.544Z,44.31
2016-05-14T09:16:09.578Z,44.52
2016-05-14T09:17:09.595Z,44.49
2016-05-14T09:18:09.630Z,44.11
2016-05-14T09:19:09.665Z,43.92
2016-05-14T09:20:09.682Z,43.65
2016-05-14T09:21:09.701Z,43.85
2016-05-14T09:22:09.594Z,43.75
2016-05-14T09:23:09.769Z,43.73
2016-05-14T09:24:09.787Z,43.54
2016-05-14T09:25:09.805Z,44.32
2016-05-14T09:26:09.839Z,44.04
2016-05-14T09:27:09.857Z,44.04
2016-05-14T09:28:09.891Z,44.04
2016-05-14T09:29:09.925Z,43.55
2016-05-14T09:30:09.943Z,44.13
2016-05-14T09:31:09.963Z,43.85
2016-05-14T09:32:09.840Z,43.85
2016-05-14T09:33:10.014Z,43.75
2016-05-14T09:34:10.439Z,43.55
2016-05-14T09:35:10.082Z,43.85
2016-05-14T09:36:10.101Z,43.65
2016-05-14T09:37:10.134Z,43.75
2016-05-14T09:38:10.152Z,43.85
2016-05-14T09:39:10.171Z,43.94
2016-05-14T09:40:10.204Z,43.55
2016-05-14T09:41:10.239Z,43.55
2016-05-14T09:42:10.256Z,43.65
2016-05-14T09:43:10.275Z,43.75
2016-05-14T09:44:10.310Z,43.85
2016-05-14T09:45:10.343Z,43.65
2016-05-14T09:46:10.362Z,43.46
2016-05-14T09:47:10.395Z,43.85
2016-05-14T09:48:10.414Z,43.75
2016-05-14T09:49:10.464Z,43.27
2016-05-14T09:50:10.466Z,43.65
2016-05-14T09:51:10.531Z,43.75
2016-05-14T09:52:10.519Z,43.75
2016-05-14T09:53:10.552Z,43.37
2016-05-14T09:54:10.570Z,43.75
2016-05-14T09:55:10.448Z,43.75
2016-05-14T09:56:10.467Z,43.75
2016-05-14T09:57:10.641Z,43.37
2016-05-14T09:58:10.675Z,43.27
2016-05-14T09:59:10.725Z,43.27
2016-05-14T10:00:10.727Z,43.07
2016-05-14T10:01:10.761Z,43.94
2016-05-14T10:02:10.780Z,43.55
2016-05-14T10:03:10.813Z,43.75
2016-05-14T10:04:10.847Z,43.55
2016-05-14T10:05:10.866Z,43.46
2016-05-14T10:06:10.884Z,43.85
2016-05-14T10:07:10.918Z,43.75
2016-05-14T10:08:10.968Z,43.46
2016-05-14T10:09:10.971Z,43.75
2016-05-14T10:10:10.989Z,43.55
2016-05-14T10:11:11.022Z,43.55
2016-05-14T10:12:11.041Z,43.37
2016-05-14T10:13:11.076Z,43.75
2016-05-14T10:14:11.093Z,43.46
2016-05-14T10:15:11.127Z,43.94
2016-05-14T10:16:11.145Z,43.65
2016-05-14T10:17:11.179Z,43.27
2016-05-14T10:18:11.464Z,43.46
2016-05-14T10:19:12.044Z,43.94
2016-05-14T10:20:11.250Z,43.55
2016-05-14T10:21:11.283Z,43.37
2016-05-14T10:22:11.302Z,43.46
2016-05-14T10:23:11.337Z,43.37
2016-05-14T10:24:11.355Z,43.85
2016-05-14T10:25:11.233Z,43.46
2016-05-14T10:26:11.422Z,43.27
2016-05-14T10:27:11.441Z,43.17
2016-05-14T10:28:11.459Z,43.46
2016-05-14T10:29:11.508Z,43.37
2016-05-14T10:30:11.527Z,43.65
2016-05-14T10:31:11.545Z,43.75
2016-05-14T10:32:11.563Z,43.85
2016-05-14T10:33:11.441Z,43.27
2016-05-14T10:34:11.741Z,43.85
2016-05-14T10:35:11.649Z,43.55
2016-05-14T10:36:11.683Z,43.75
2016-05-14T10:37:11.702Z,43.65
2016-05-14T10:38:11.721Z,43.85
2016-05-14T10:39:11.755Z,43.55
2016-05-14T10:40:11.773Z,43.75
2016-05-14T10:41:11.807Z,43.94
2016-05-14T10:42:11.841Z,43.85
2016-05-14T10:43:11.859Z,44.04
2016-05-14T10:44:11.877Z,44.04
2016-05-14T10:45:11.911Z,43.73
2016-05-14T10:46:11.960Z,43.75
2016-05-14T10:47:11.823Z,43.92
2016-05-14T10:48:11.997Z,43.92
2016-05-14T10:49:11.875Z,43.92
2016-05-14T10:50:12.049Z,43.54
2016-05-14T10:51:12.067Z,44.31
2016-05-14T10:52:12.087Z,44.4
2016-05-14T10:53:12.120Z,44.4
2016-05-14T10:54:12.153Z,44.4
2016-05-14T10:55:12.172Z,44.11
2016-05-14T10:56:12.191Z,44.49
2016-05-14T10:57:12.225Z,44.31
2016-05-14T10:58:12.086Z,44.31
2016-05-14T10:59:12.277Z,44.31
2016-05-14T11:00:12.311Z,44.11
2016-05-14T11:01:12.330Z,44.11
2016-05-14T11:02:12.363Z,44.11
2016-05-14T11:03:12.381Z,44.31
2016-05-14T11:04:12.383Z,44.21
2016-05-14T11:05:12.433Z,44.02
2016-05-14T11:06:12.468Z,44.59
2016-05-14T11:07:12.485Z,44.02
2016-05-14T11:08:12.505Z,44.11
2016-05-14T11:09:12.537Z,44.11
2016-05-14T11:10:12.556Z,44.49
2016-05-14T11:11:12.466Z,43.82
2016-05-14T11:12:12.609Z,43.63
2016-05-14T11:13:12.643Z,44.49
2016-05-14T11:14:12.676Z,43.63
2016-05-14T11:15:12.538Z,44.21
2016-05-14T11:16:12.713Z,44.49
2016-05-14T11:17:12.748Z,44.21
2016-05-14T11:18:12.765Z,44.11
2016-05-14T11:19:13.221Z,44.4
2016-05-14T11:20:12.834Z,43.73
2016-05-14T11:21:12.851Z,43.92
2016-05-14T11:22:12.886Z,43.82
2016-05-14T11:23:12.919Z,43.73
2016-05-14T11:24:12.937Z,43.82
2016-05-14T11:25:12.956Z,43.63
2016-05-14T11:26:12.990Z,43.82
2016-05-14T11:27:13.009Z,43.73
2016-05-14T11:28:13.042Z,43.46
2016-05-14T11:29:13.060Z,43.85
2016-05-14T11:30:13.094Z,43.55
2016-05-14T11:31:13.097Z,43.46
2016-05-14T11:32:13.131Z,43.07
2016-05-14T11:33:13.461Z,43.65
2016-05-14T11:34:13.371Z,43.94
2016-05-14T11:35:13.217Z,43.27
2016-05-14T11:36:13.252Z,43.94
2016-05-14T11:37:13.269Z,43.27
2016-05-14T11:38:13.288Z,43.46
2016-05-14T11:39:13.322Z,43.27
2016-05-14T11:40:13.340Z,43.46
2016-05-14T11:41:13.374Z,43.07
2016-05-14T11:42:13.392Z,43.17
2016-05-14T11:43:13.426Z,42.88
2016-05-14T11:44:13.445Z,43.17
2016-05-14T11:45:13.479Z,43.27
2016-05-14T11:46:13.512Z,42.88
2016-05-14T11:47:13.531Z,43.07
2016-05-14T11:48:14.221Z,43.17
2016-05-14T11:49:13.599Z,43.17
2016-05-14T11:50:13.617Z,43.17
2016-05-14T11:51:13.635Z,42.97
2016-05-14T11:52:13.670Z,43.27
2016-05-14T11:53:13.688Z,43.17
2016-05-14T11:54:13.722Z,43.17
2016-05-14T11:55:13.740Z,43.27
2016-05-14T11:56:13.617Z,42.3
2016-05-14T11:57:13.792Z,42.49
2016-05-14T11:58:13.826Z,42.49
2016-05-14T11:59:13.844Z,42.69
2016-05-14T12:00:13.722Z,42.59
2016-05-14T12:01:13.896Z,42.69
2016-05-14T12:02:13.930Z,42.4
2016-05-14T12:03:13.964Z,42.59
2016-05-14T12:04:13.842Z,42.59
2016-05-14T12:05:14.016Z,42.59
2016-05-14T12:06:14.066Z,42.49
2016-05-14T12:07:14.085Z,42.59
2016-05-14T12:08:14.087Z,42.59
2016-05-14T12:09:14.122Z,42.49
2016-05-14T12:10:14.139Z,42.49
2016-05-14T12:11:14.017Z,42.49
2016-05-14T12:12:14.191Z,42.59
2016-05-14T12:13:14.069Z,42.21
2016-05-14T12:14:14.260Z,42.69
2016-05-14T12:15:14.279Z,42.4
2016-05-14T12:16:14.297Z,42.69
2016-05-14T12:17:14.190Z,42.4
2016-05-14T12:18:14.474Z,42.49
2016-05-14T12:19:14.835Z,42.59
2016-05-14T12:20:14.417Z,42.21
2016-05-14T12:21:14.295Z,42.79
2016-05-14T12:22:14.468Z,42.21
2016-05-14T12:23:14.487Z,42.11
2016-05-14T12:24:14.537Z,42.69
2016-05-14T12:25:14.398Z,42.32
2016-05-14T12:26:14.573Z,42.3
2016-05-14T12:27:14.607Z,42.49
2016-05-14T12:28:14.625Z,42.11
2016-05-14T12:29:14.659Z,42.79
2016-05-14T12:30:14.678Z,42.21
2016-05-14T12:31:14.696Z,42.11
2016-05-14T12:32:14.730Z,42.21
2016-05-14T12:33:14.763Z,42.59
2016-05-14T12:34:15.063Z,42.21
2016-05-14T12:35:14.816Z,42.32
2016-05-14T12:36:14.678Z,42.4
2016-05-14T12:37:14.868Z,42.49
2016-05-14T12:38:14.902Z,42.59
2016-05-14T12:39:14.921Z,42.59
2016-05-14T12:40:14.955Z,42.42
2016-05-14T12:41:14.974Z,42.3
2016-05-14T12:42:15.007Z,42.3
2016-05-14T12:43:15.025Z,42.3
2016-05-14T12:44:15.060Z,42.42
2016-05-14T12:45:15.077Z,42.21
2016-05-14T12:46:15.112Z,42.3
2016-05-14T12:47:15.129Z,42.3
2016-05-14T12:48:15.163Z,42.3
2016-05-14T12:49:15.182Z,42.69
2016-05-14T12:50:15.215Z,42.3
2016-05-14T12:51:15.251Z,42.3
2016-05-14T12:52:15.268Z,42.69
2016-05-14T12:53:15.286Z,42.11
2016-05-14T12:54:15.320Z,42.69
2016-05-14T12:55:15.339Z,42.79
2016-05-14T12:56:15.373Z,42.59